createdAt,value
2018-09-03T00:01:01.913Z,102409.48
2018-09-03T00:03:30.557Z,102410.58
2018-09-03T00:05:59.453Z,102411.36
2018-09-03T00:08:28.232Z,102409.80
2018-09-03T00:10:56.994Z,102408.86
2018-09-03T00:13:25.758Z,102404.82
2018-09-03T00:15:54.510Z,102411.17
2018-09-03T00:18:23.433Z,102409.80
2018-09-03T00:20:52.171Z,102403.39
2018-09-03T00:23:21.259Z,102401.67
2018-09-03T00:25:50.127Z,102401.06
2018-09-03T00:28:18.986Z,102402.00
2018-09-03T00:30:47.946Z,102397.81
2018-09-03T00:33:22.046Z,102400.94
2018-09-03T00:35:56.087Z,102401.55
2018-09-03T00:38:29.860Z,102397.56
2018-09-03T00:42:02.048Z,102391.80
2018-09-03T00:44:36.272Z,102391.72
2018-09-03T00:47:07.311Z,102396.70
2018-09-03T00:49:36.023Z,102392.72
2018-09-03T00:52:04.883Z,102393.11
2018-09-03T00:54:34.348Z,102388.28
2018-09-03T00:57:03.211Z,102393.23
2018-09-03T00:59:31.840Z,102395.97
2018-09-03T01:02:00.451Z,102392.14
2018-09-03T01:04:29.338Z,102401.81
2018-09-03T01:06:58.278Z,102388.02
2018-09-03T01:09:27.054Z,102395.58
2018-09-03T01:11:56.005Z,102394.18
2018-09-03T01:14:24.660Z,102393.39
2018-09-03T01:16:53.431Z,102396.91
2018-09-03T01:19:22.167Z,102397.44
2018-09-03T01:21:50.972Z,102393.64
2018-09-03T01:24:19.579Z,102390.92
2018-09-03T01:26:48.248Z,102394.79
2018-09-03T01:29:16.957Z,102398.38
2018-09-03T01:31:45.702Z,102395.66
2018-09-03T01:34:14.611Z,102396.23
2018-09-03T01:36:43.290Z,102389.59
2018-09-03T01:39:12.051Z,102387.95
2018-09-03T01:41:40.810Z,102385.55
2018-09-03T01:44:09.613Z,102382.51
2018-09-03T01:46:38.322Z,102377.81
2018-09-03T01:49:07.044Z,102374.16
2018-09-03T01:51:35.703Z,102175.50
2018-09-03T01:54:04.425Z,102375.70
2018-09-03T01:56:35.253Z,102373.16
2018-09-03T01:59:03.906Z,102371.05
2018-09-03T02:01:32.892Z,102370.27
2018-09-03T02:04:01.877Z,102366.75
2018-09-03T02:06:31.030Z,102365.50
2018-09-03T02:08:59.692Z,102362.78
2018-09-03T02:11:28.624Z,102369.72
2018-09-03T02:13:57.620Z,102001.19
2018-09-03T02:16:26.518Z,102364.56
2018-09-03T02:18:55.231Z,102363.34
2018-09-03T02:21:24.083Z,102363.88
2018-09-03T02:23:52.733Z,102367.54
2018-09-03T02:26:21.812Z,102364.03
2018-09-03T02:28:50.574Z,102369.05
2018-09-03T02:31:19.372Z,102362.63
2018-09-03T02:33:49.026Z,102358.19
2018-09-03T02:36:17.692Z,102362.63
2018-09-03T02:38:46.374Z,102358.27
2018-09-03T02:41:14.997Z,102354.29
2018-09-03T02:43:43.818Z,102349.45
2018-09-03T02:46:12.680Z,102346.58
2018-09-03T02:48:41.471Z,102339.64
2018-09-03T02:51:10.132Z,102341.75
2018-09-03T02:53:39.019Z,102342.39
2018-09-03T02:56:07.708Z,102342.00
2018-09-03T02:58:36.427Z,102345.52
2018-09-03T03:01:05.502Z,102348.23
2018-09-03T03:03:34.390Z,102345.33
2018-09-03T03:06:03.179Z,102347.59
2018-09-03T03:08:31.929Z,102349.88
2018-09-03T03:11:00.642Z,102348.16
2018-09-03T03:13:29.517Z,102347.05
2018-09-03T03:15:58.134Z,102337.63
2018-09-03T03:18:26.897Z,102336.62
2018-09-03T03:20:55.770Z,102331.22
2018-09-03T03:23:24.607Z,102336.52
2018-09-03T03:25:53.295Z,102328.11
2018-09-03T03:28:22.431Z,102331.47
2018-09-03T03:30:51.146Z,102329.43
2018-09-03T03:33:19.939Z,102333.02
2018-09-03T03:35:48.674Z,102330.29
2018-09-03T03:38:17.487Z,102324.84
2018-09-03T03:40:46.201Z,102325.23
2018-09-03T03:43:15.099Z,102321.02
2018-09-03T03:45:44.144Z,102317.11
2018-09-03T03:48:12.853Z,102320.16
2018-09-03T03:50:41.853Z,102325.06
2018-09-03T03:53:10.699Z,102322.52
2018-09-03T03:55:39.375Z,102317.04
2018-09-03T03:58:08.183Z,102316.04
2018-09-03T04:00:36.853Z,102313.70
2018-09-03T04:03:05.742Z,102312.78
2018-09-03T04:05:34.572Z,102317.69
2018-09-03T04:08:03.256Z,102310.98
2018-09-03T04:10:31.978Z,102313.84
2018-09-03T04:13:06.783Z,102315.39
2018-09-03T04:15:36.277Z,102313.92
2018-09-03T04:18:05.258Z,102307.43
2018-09-03T04:20:33.929Z,102311.40
2018-09-03T04:23:03.044Z,102308.41
2018-09-03T04:25:31.647Z,102307.62
2018-09-03T04:28:00.527Z,102306.73
2018-09-03T04:30:29.428Z,102312.67
2018-09-03T04:32:58.281Z,102303.05
2018-09-03T04:35:26.906Z,102309.61
2018-09-03T04:37:55.618Z,102307.78
2018-09-03T04:40:25.079Z,102287.70
2018-09-03T04:42:53.910Z,102294.19
2018-09-03T04:45:22.659Z,102301.61
2018-09-03T04:47:51.469Z,102300.63
2018-09-03T04:50:20.275Z,102299.55
2018-09-03T04:52:48.912Z,102302.43
2018-09-03T04:55:17.680Z,102304.66
2018-09-03T04:57:47.066Z,102303.05
2018-09-03T05:00:16.309Z,102304.49
2018-09-03T05:02:45.496Z,102304.96
2018-09-03T05:05:14.136Z,102306.33
2018-09-03T05:07:42.745Z,102307.68
2018-09-03T05:10:11.391Z,102310.64
2018-09-03T05:12:40.005Z,102315.09
2018-09-03T05:15:08.712Z,102313.53
2018-09-03T05:17:37.528Z,102307.19
2018-09-03T05:20:06.619Z,102308.84
2018-09-03T05:22:35.540Z,102297.69
2018-09-03T05:25:04.203Z,102297.41
2018-09-03T05:27:33.166Z,102302.83
2018-09-03T05:30:02.218Z,102302.36
2018-09-03T05:32:31.018Z,102301.73
2018-09-03T05:34:59.777Z,102299.08
2018-09-03T05:37:28.349Z,102299.00
2018-09-03T05:39:56.933Z,102297.28
2018-09-03T05:42:25.850Z,102295.02
2018-09-03T05:44:54.727Z,102293.69
2018-09-03T05:47:23.439Z,102301.08
2018-09-03T05:49:52.215Z,102300.44
2018-09-03T05:52:20.911Z,102301.47
2018-09-03T05:54:49.628Z,102300.47
2018-09-03T05:57:18.379Z,102294.29
2018-09-03T05:59:46.973Z,102293.99
2018-09-03T06:02:15.573Z,102296.65
2018-09-03T06:04:44.498Z,102288.49
2018-09-03T06:07:13.195Z,102288.31
2018-09-03T06:09:41.860Z,102284.78
2018-09-03T06:12:10.578Z,102280.97
2018-09-03T06:14:39.229Z,102273.81
2018-09-03T06:17:07.906Z,102271.88
2018-09-03T06:19:36.639Z,102274.97
2018-09-03T06:22:05.851Z,102271.72
2018-09-03T06:24:34.602Z,102269.76
2018-09-03T06:27:03.505Z,102270.98
2018-09-03T06:29:32.135Z,102264.94
2018-09-03T06:32:00.782Z,102262.17
2018-09-03T06:34:29.395Z,102260.25
2018-09-03T06:36:58.032Z,102260.28
2018-09-03T06:39:26.764Z,102251.13
2018-09-03T06:41:55.414Z,102254.02
2018-09-03T06:44:24.404Z,102254.27
2018-09-03T06:46:53.000Z,102250.77
2018-09-03T06:49:21.801Z,102264.63
2018-09-03T06:51:50.468Z,102251.63
2018-09-03T06:54:19.542Z,102251.24
2018-09-03T06:56:48.152Z,102248.55
2018-09-03T06:59:16.841Z,102241.70
2018-09-03T07:01:45.454Z,102233.80
2018-09-03T07:04:14.080Z,102231.61
2018-09-03T07:06:42.728Z,102232.84
2018-09-03T07:09:11.455Z,102235.20
2018-09-03T07:11:40.894Z,102237.91
2018-09-03T07:14:09.581Z,102228.80
2018-09-03T07:16:38.447Z,102225.53
2018-09-03T07:19:07.229Z,102225.40
2018-09-03T07:21:36.027Z,102221.35
2018-09-03T07:24:04.683Z,102219.88
2018-09-03T07:26:33.774Z,102216.81
2018-09-03T07:29:02.388Z,102209.27
2018-09-03T07:31:31.462Z,102208.91
2018-09-03T07:34:00.182Z,102202.16
2018-09-03T07:36:28.862Z,102200.57
2018-09-03T07:38:57.543Z,102198.94
2018-09-03T07:41:26.355Z,102198.56
2018-09-03T07:43:55.029Z,102197.03
2018-09-03T07:46:23.994Z,102198.17
2018-09-03T07:48:53.044Z,102201.04
2018-09-03T07:51:21.853Z,102202.34
2018-09-03T07:53:50.501Z,102191.95
2018-09-03T07:56:19.197Z,102189.37
2018-09-03T07:58:47.781Z,102192.37
2018-09-03T08:01:16.670Z,102186.57
2018-09-03T08:03:45.503Z,102189.91
2018-09-03T08:06:14.306Z,102179.52
2018-09-03T08:08:42.927Z,102178.69
2018-09-03T08:11:11.649Z,102182.91
2018-09-03T08:13:41.568Z,102182.09
2018-09-03T08:16:11.433Z,102181.38
2018-09-03T08:18:40.940Z,102179.09
2018-09-03T08:21:23.987Z,102175.16
2018-09-03T08:23:53.016Z,102173.28
2018-09-03T08:26:21.626Z,102163.30
2018-09-03T08:28:50.455Z,102175.40
2018-09-03T08:31:19.109Z,102165.06
2018-09-03T08:33:47.830Z,102164.39
2018-09-03T08:36:16.490Z,102173.56
2018-09-03T08:38:45.498Z,102171.67
2018-09-03T08:41:14.222Z,102160.55
2018-09-03T08:43:42.968Z,102160.50
2018-09-03T08:46:11.718Z,102159.29
2018-09-03T08:48:40.609Z,102159.30
2018-09-03T08:51:09.257Z,102156.08
2018-09-03T08:53:37.974Z,102152.37
2018-09-03T08:56:07.137Z,102156.94
2018-09-03T08:58:35.925Z,102153.31
2018-09-03T09:01:04.681Z,102145.73
2018-09-03T09:03:38.577Z,102148.58
2018-09-03T09:06:07.594Z,102150.38
2018-09-03T09:08:36.320Z,102141.30
2018-09-03T09:11:05.325Z,102123.53
2018-09-03T09:13:33.904Z,102128.27
2018-09-03T09:16:02.642Z,102126.69
2018-09-03T09:18:31.545Z,102119.66
2018-09-03T09:21:00.355Z,102116.56
2018-09-03T09:23:28.904Z,102121.71
2018-09-03T09:25:57.679Z,102126.02
2018-09-03T09:28:26.591Z,102116.30
2018-09-03T09:30:55.190Z,102125.20
2018-09-03T09:33:26.945Z,102122.73
2018-09-03T09:35:55.650Z,102126.62
2018-09-03T09:38:24.301Z,102111.08
2018-09-03T09:40:53.047Z,102112.63
2018-09-03T09:43:21.931Z,102115.13
2018-09-03T09:45:50.687Z,102105.02
2018-09-03T09:48:19.433Z,102109.36
2018-09-03T09:50:48.193Z,102110.06
2018-09-03T09:53:16.912Z,102113.05
2018-09-03T09:55:45.727Z,102106.31
2018-09-03T09:58:14.321Z,102106.78
2018-09-03T10:01:49.891Z,102110.95
2018-09-03T10:04:18.560Z,102099.92
2018-09-03T10:06:47.318Z,102104.92
2018-09-03T10:09:16.020Z,102105.90
2018-09-03T10:11:44.790Z,102100.55
2018-09-03T10:14:13.587Z,102099.38
2018-09-03T10:16:42.347Z,102098.22
2018-09-03T10:19:11.019Z,102093.66
2018-09-03T10:21:39.840Z,102099.73
2018-09-03T10:24:08.727Z,102094.42
2018-09-03T10:26:37.477Z,102098.86
2018-09-03T10:29:06.170Z,102093.99
2018-09-03T10:31:35.090Z,102088.17
2018-09-03T10:34:03.781Z,102086.12
2018-09-03T10:36:32.794Z,102082.97
2018-09-03T10:39:01.644Z,102099.70
2018-09-03T10:41:30.287Z,102082.71
2018-09-03T10:43:58.957Z,102074.86
2018-09-03T10:46:27.812Z,102081.31
2018-09-03T10:48:56.742Z,102072.97
2018-09-03T10:51:25.768Z,102072.62
2018-09-03T10:53:54.509Z,102067.87
2018-09-03T10:56:23.300Z,102070.38
2018-09-03T10:58:52.149Z,102074.83
2018-09-03T11:01:20.975Z,102069.12
2018-09-03T11:03:52.594Z,102069.77
2018-09-03T11:06:21.618Z,102078.34
2018-09-03T11:08:50.526Z,102068.49
2018-09-03T11:11:19.284Z,102056.20
2018-09-03T11:13:48.073Z,102060.97
2018-09-03T11:16:16.826Z,102060.31
2018-09-03T11:18:45.641Z,102063.33
2018-09-03T11:21:14.335Z,102062.11
2018-09-03T11:23:43.155Z,102051.39
2018-09-03T11:26:11.870Z,102051.97
2018-09-03T11:28:40.747Z,102055.48
2018-09-03T11:31:09.461Z,102046.97
2018-09-03T11:33:38.249Z,102047.34
2018-09-03T11:36:07.089Z,102018.36
2018-09-03T11:38:35.799Z,102039.94
2018-09-03T11:41:04.415Z,102041.77
2018-09-03T11:43:33.196Z,102029.42
2018-09-03T11:46:01.892Z,102033.78
2018-09-03T11:48:30.876Z,102036.38
2018-09-03T11:50:59.898Z,102032.98
2018-09-03T11:53:28.735Z,102033.18
2018-09-03T11:55:57.500Z,102035.78
2018-09-03T11:58:26.293Z,102025.25
2018-09-03T12:00:58.909Z,102018.06
2018-09-03T12:03:27.879Z,102020.98
2018-09-03T12:05:56.907Z,102019.19
2018-09-03T12:08:25.807Z,102016.95
2018-09-03T12:10:54.442Z,102019.66
2018-09-03T12:13:23.309Z,102015.63
2018-09-03T12:16:24.617Z,102013.97
2018-09-03T12:18:55.722Z,102013.75
2018-09-03T12:21:24.536Z,102014.30
2018-09-03T12:23:53.223Z,102010.45
2018-09-03T12:26:22.369Z,102005.66
2018-09-03T12:28:50.973Z,101998.66
2018-09-03T12:31:19.667Z,102000.13
2018-09-03T12:33:48.464Z,101994.59
2018-09-03T12:36:17.389Z,101994.48
2018-09-03T12:38:46.211Z,101995.23
2018-09-03T12:41:15.014Z,101994.98
2018-09-03T12:43:43.701Z,101990.90
2018-09-03T12:46:12.434Z,101994.74
2018-09-03T12:48:41.127Z,101986.56
2018-09-03T12:51:09.761Z,101982.91
2018-09-03T12:53:38.438Z,101975.91
2018-09-03T12:56:07.323Z,101969.84
2018-09-03T12:58:36.043Z,101966.22
2018-09-03T13:01:04.706Z,101967.30
2018-09-03T13:03:33.427Z,101968.36
2018-09-03T13:06:02.060Z,101957.79
2018-09-03T13:08:30.952Z,101966.16
2018-09-03T13:10:59.551Z,101972.40
2018-09-03T13:13:28.355Z,101962.48
2018-09-03T13:15:57.157Z,101957.30
2018-09-03T13:18:25.796Z,101955.52
2018-09-03T13:20:55.218Z,101959.66
2018-09-03T13:23:23.912Z,101940.11
2018-09-03T13:25:52.609Z,101939.63
2018-09-03T13:28:21.504Z,101944.30
2018-09-03T13:30:50.240Z,101940.16
2018-09-03T13:33:19.061Z,101942.64
2018-09-03T13:35:47.742Z,101939.31
2018-09-03T13:38:16.393Z,101935.37
2018-09-03T13:40:45.116Z,101942.53
2018-09-03T13:43:13.793Z,101945.16
2018-09-03T13:45:42.710Z,101944.08
2018-09-03T13:48:11.485Z,101940.58
2018-09-03T13:50:40.312Z,101942.48
2018-09-03T13:53:09.210Z,101943.77
2018-09-03T13:55:38.117Z,101936.70
2018-09-03T13:58:06.869Z,101936.77
2018-09-03T14:00:35.456Z,101934.77
2018-09-03T14:03:04.245Z,101940.05
2018-09-03T14:05:33.300Z,101917.91
2018-09-03T14:08:01.907Z,101812.66
2018-09-03T14:10:30.829Z,101914.72
2018-09-03T14:12:59.710Z,101918.32
2018-09-03T14:15:28.665Z,101917.91
2018-09-03T14:17:57.497Z,101924.90
2018-09-03T14:20:26.407Z,101922.75
2018-09-03T14:22:55.180Z,101909.45
2018-09-03T14:25:24.378Z,101918.23
2018-09-03T14:27:53.097Z,101906.06
2018-09-03T14:30:21.836Z,101907.23
2018-09-03T14:32:51.415Z,101899.03
2018-09-03T14:35:20.148Z,101912.48
2018-09-03T14:37:49.151Z,101913.30
2018-09-03T14:40:20.093Z,101918.42
2018-09-03T14:42:49.081Z,101909.44
2018-09-03T14:45:18.095Z,101910.23
2018-09-03T14:47:47.222Z,101898.23
2018-09-03T14:50:16.028Z,101913.08
2018-09-03T14:52:44.799Z,101909.40
2018-09-03T14:55:13.537Z,101908.86
2018-09-03T14:57:42.368Z,101909.39
2018-09-03T15:00:11.354Z,101908.70
2018-09-03T15:02:40.206Z,101905.72
2018-09-03T15:05:08.940Z,101913.06
2018-09-03T15:07:37.978Z,101905.52
2018-09-03T15:10:06.991Z,101904.56
2018-09-03T15:12:35.910Z,101903.08
2018-09-03T15:15:04.981Z,101900.93
2018-09-03T15:17:34.128Z,101902.73
2018-09-03T15:20:03.005Z,101906.91
2018-09-03T15:22:32.011Z,101909.95
2018-09-03T15:25:00.671Z,101902.86
2018-09-03T15:27:29.280Z,101909.69
2018-09-03T15:29:58.001Z,101912.27
2018-09-03T15:32:27.377Z,101908.63
2018-09-03T15:34:56.370Z,101908.41
2018-09-03T15:37:25.517Z,101909.22
2018-09-03T15:39:54.502Z,101911.02
2018-09-03T15:42:23.452Z,101902.84
2018-09-03T15:44:52.618Z,101906.57
2018-09-03T15:47:21.616Z,101903.03
2018-09-03T15:49:50.636Z,101902.80
2018-09-03T15:52:19.420Z,101901.81
2018-09-03T15:54:48.033Z,101901.58
2018-09-03T15:57:16.973Z,101904.14
2018-09-03T15:59:45.768Z,101907.60
2018-09-03T16:02:14.457Z,101913.15
2018-09-03T16:04:43.708Z,101910.91
2018-09-03T16:07:12.602Z,101913.09
2018-09-03T16:09:41.589Z,101908.86
2018-09-03T16:12:10.413Z,101918.05
2018-09-03T16:14:39.779Z,101915.30
2018-09-03T16:17:09.190Z,101926.06
2018-09-03T16:19:38.027Z,101923.95
2018-09-03T16:22:07.236Z,101931.39
2018-09-03T16:24:36.127Z,101930.57
2018-09-03T16:27:04.930Z,101931.87
2018-09-03T16:29:33.907Z,101926.25
2018-09-03T16:32:02.754Z,101919.55
2018-09-03T16:34:31.811Z,101924.70
2018-09-03T16:37:00.899Z,101916.89
2018-09-03T16:39:30.143Z,101933.67
2018-09-03T16:41:59.418Z,101930.73
2018-09-03T16:44:28.298Z,101931.98
2018-09-03T16:46:57.161Z,101930.42
2018-09-03T16:49:25.926Z,101925.97
2018-09-03T16:51:54.620Z,101927.20
2018-09-03T16:54:23.524Z,101926.17
2018-09-03T16:56:52.256Z,101922.30
2018-09-03T16:59:21.296Z,101922.33
2018-09-03T17:01:50.136Z,101928.03
2018-09-03T17:04:18.991Z,101913.22
2018-09-03T17:06:47.841Z,101910.63
2018-09-03T17:09:16.629Z,101914.93
2018-09-03T17:11:45.336Z,101910.41
2018-09-03T17:14:14.220Z,101917.70
2018-09-03T17:16:43.175Z,101919.03
2018-09-03T17:19:11.991Z,101916.62
2018-09-03T17:21:40.802Z,101923.68
2018-09-03T17:24:09.437Z,101919.05
2018-09-03T17:26:38.230Z,101926.34
2018-09-03T17:29:06.956Z,101938.64
2018-09-03T17:31:35.874Z,101922.88
2018-09-03T17:34:04.546Z,101932.46
2018-09-03T17:36:33.299Z,101932.63
2018-09-03T17:39:02.316Z,101937.75
2018-09-03T17:41:30.941Z,101940.88
2018-09-03T17:43:59.870Z,101939.84
2018-09-03T17:46:28.497Z,101937.28
2018-09-03T17:48:57.441Z,101941.31
2018-09-03T17:51:26.205Z,101947.88
2018-09-03T17:53:54.962Z,101952.47
2018-09-03T17:56:23.887Z,101947.77
2018-09-03T17:58:52.710Z,101946.60
2018-09-03T18:01:21.583Z,101948.16
2018-09-03T18:03:50.606Z,101951.19
2018-09-03T18:06:19.351Z,101955.44
2018-09-03T18:08:48.231Z,101950.98
2018-09-03T18:11:17.028Z,101951.10
2018-09-03T18:13:45.785Z,101955.23
2018-09-03T18:16:14.776Z,101959.78
2018-09-03T18:18:43.598Z,101953.21
2018-09-03T18:21:12.426Z,101948.50
2018-09-03T18:23:41.319Z,101941.87
2018-09-03T18:26:10.265Z,101946.62
2018-09-03T18:28:39.409Z,101948.95
2018-09-03T18:31:08.255Z,101949.47
2018-09-03T18:33:37.118Z,101942.84
2018-09-03T18:36:06.087Z,101939.82
2018-09-03T18:38:34.956Z,101940.30
2018-09-03T18:41:04.266Z,101939.00
2018-09-03T18:43:33.267Z,101932.42
2018-09-03T18:46:02.061Z,101932.55
2018-09-03T18:48:31.430Z,101931.12
2018-09-03T18:51:00.176Z,101927.96
2018-09-03T18:53:29.073Z,101941.09
2018-09-03T18:55:57.815Z,101936.13
2018-09-03T18:58:26.564Z,101944.12
2018-09-03T19:00:55.318Z,101939.64
2018-09-03T19:03:24.326Z,101937.95
2018-09-03T19:05:53.315Z,101934.39
2018-09-03T19:08:22.010Z,101938.14
2018-09-03T19:10:50.727Z,101935.25
2018-09-03T19:13:19.467Z,101938.03
2018-09-03T19:15:48.533Z,101935.59
2018-09-03T19:18:17.557Z,101938.40
2018-09-03T19:20:46.533Z,101938.03
2018-09-03T19:23:15.264Z,101940.81
2018-09-03T19:25:44.101Z,101934.36
2018-09-03T19:28:13.134Z,101927.39
2018-09-03T19:30:41.914Z,101932.46
2018-09-03T19:33:10.600Z,101917.45
2018-09-03T19:35:39.580Z,101923.49
2018-09-03T19:38:08.247Z,101921.78
2018-09-03T19:40:37.100Z,101922.85
2018-09-03T19:43:06.094Z,101920.17
2018-09-03T19:45:35.004Z,101918.20
2018-09-03T19:48:03.859Z,101916.48
2018-09-03T19:50:32.754Z,101916.75
2018-09-03T19:53:01.789Z,101910.94
2018-09-03T19:55:30.529Z,101915.02
2018-09-03T19:57:59.197Z,101911.88
2018-09-03T20:00:28.277Z,101910.00
2018-09-03T20:02:56.941Z,101903.59
2018-09-03T20:05:25.628Z,101906.75
2018-09-03T20:07:54.312Z,101899.10
2018-09-03T20:10:23.207Z,101901.63
2018-09-03T20:12:51.991Z,101904.06
2018-09-03T20:15:25.069Z,101907.91
2018-09-03T20:17:54.454Z,101904.95
2018-09-03T20:20:23.573Z,101907.70
2018-09-03T20:22:52.513Z,101908.89
2018-09-03T20:25:21.653Z,101908.88
2018-09-03T20:27:50.672Z,101913.08
2018-09-03T20:30:19.460Z,101911.15
2018-09-03T20:32:48.368Z,101911.39
2018-09-03T20:35:17.287Z,101916.34
2018-09-03T20:37:45.943Z,101921.67
2018-09-03T20:40:14.760Z,101911.87
2018-09-03T20:42:43.624Z,101909.79
2018-09-03T20:45:12.696Z,101908.32
2018-09-03T20:47:41.579Z,101908.67
2018-09-03T20:50:10.294Z,101913.31
2018-09-03T20:52:39.133Z,101910.86
2018-09-03T20:55:07.989Z,101908.97
2018-09-03T20:57:37.037Z,101904.29
2018-09-03T21:00:06.749Z,101908.00
2018-09-03T21:02:35.389Z,101905.16
2018-09-03T21:05:04.199Z,101908.64
2018-09-03T21:07:32.984Z,101896.95
2018-09-03T21:10:01.707Z,101900.33
2018-09-03T21:12:30.700Z,101908.52
2018-09-03T21:14:59.606Z,101903.84
2018-09-03T21:17:28.318Z,101898.34
2018-09-03T21:19:57.255Z,101904.84
2018-09-03T21:22:26.133Z,101903.94
2018-09-03T21:24:54.856Z,101905.05
2018-09-03T21:27:23.548Z,101907.72
2018-09-03T21:29:52.481Z,101905.20
2018-09-03T21:32:21.489Z,101900.53
2018-09-03T21:34:50.277Z,101898.60
2018-09-03T21:37:18.983Z,101899.78
2018-09-03T21:39:47.820Z,101898.55
2018-09-03T21:42:16.666Z,101897.45
2018-09-03T21:44:45.404Z,101894.80
2018-09-03T21:47:14.248Z,101889.00
2018-09-03T21:49:42.967Z,101888.52
2018-09-03T21:52:11.928Z,101886.28
2018-09-03T21:54:40.640Z,101888.81
2018-09-03T21:57:09.415Z,101895.12
2018-09-03T21:59:38.046Z,101898.77
2018-09-03T22:02:09.578Z,101891.13
2018-09-03T22:04:40.226Z,101892.27
2018-09-03T22:07:08.941Z,101897.68
2018-09-03T22:09:37.824Z,101888.56
2018-09-03T22:12:07.139Z,101887.97
2018-09-03T22:14:35.972Z,101885.13
2018-09-03T22:17:05.258Z,101879.02
2018-09-03T22:19:33.994Z,101886.62
2018-09-03T22:22:02.706Z,101892.12
2018-09-03T22:24:31.721Z,101892.53
2018-09-03T22:27:00.822Z,101891.20
2018-09-03T22:29:29.781Z,101891.52
2018-09-03T22:31:58.735Z,101886.39
2018-09-03T22:34:27.987Z,101884.23
2018-09-03T22:36:56.801Z,101889.64
2018-09-03T22:39:25.649Z,101890.02
2018-09-03T22:41:54.613Z,101884.33
2018-09-03T22:44:23.530Z,101875.91
2018-09-03T22:46:58.669Z,101879.70
2018-09-03T22:49:27.558Z,101875.72
2018-09-03T22:51:56.406Z,101875.72
2018-09-03T22:54:25.436Z,101880.36
2018-09-03T22:56:54.204Z,101872.89
2018-09-03T22:59:22.915Z,101874.78
2018-09-03T23:01:51.833Z,101865.42
2018-09-03T23:04:20.614Z,101863.91
2018-09-03T23:06:49.389Z,101859.85
2018-09-03T23:09:18.417Z,101864.20
2018-09-03T23:11:47.471Z,101858.55
2018-09-03T23:14:16.190Z,101867.26
2018-09-03T23:16:44.918Z,101858.18
2018-09-03T23:19:13.834Z,101864.45
2018-09-03T23:21:42.560Z,101867.25
2018-09-03T23:24:11.244Z,101860.63
2018-09-03T23:26:40.975Z,101855.06
2018-09-03T23:29:09.689Z,101858.84
2018-09-03T23:31:38.399Z,101861.31
2018-09-03T23:34:07.037Z,101866.41
2018-09-03T23:36:35.757Z,101860.08
2018-09-03T23:39:05.428Z,101861.50
2018-09-03T23:41:34.195Z,101855.64
2018-09-03T23:44:02.862Z,101851.92
2018-09-03T23:46:31.748Z,101866.80
2018-09-03T23:49:00.573Z,101854.48
2018-09-03T23:51:29.229Z,101857.91
2018-09-03T23:53:58.156Z,101853.16
2018-09-03T23:56:27.212Z,101860.09
2018-09-03T23:58:56.049Z,101857.35
